createdAt,value
2018-09-04T00:01:09.295Z,52.80
2018-09-04T00:06:06.675Z,56.70
2018-09-04T00:11:03.505Z,60.20
2018-09-04T00:16:05.365Z,60.37
2018-09-04T00:21:02.283Z,56.23
2018-09-04T00:25:59.255Z,58.37
2018-09-04T00:30:56.037Z,58.40
2018-09-04T00:35:53.715Z,53.97
2018-09-04T00:40:50.680Z,54.93
2018-09-04T00:45:47.656Z,52.57
2018-09-04T00:50:44.588Z,55.57
2018-09-04T00:55:41.399Z,61.17
2018-09-04T01:00:39.016Z,67.50
2018-09-04T01:05:36.014Z,65.40
2018-09-04T01:10:33.286Z,63.53
2018-09-04T01:15:30.064Z,71.07
2018-09-04T01:20:27.320Z,61.10
2018-09-04T01:25:24.175Z,71.17
2018-09-04T01:30:21.408Z,74.30
2018-09-04T01:35:17.685Z,64.83
2018-09-04T01:40:15.165Z,68.07
2018-09-04T01:45:11.975Z,66.37
2018-09-04T01:50:08.965Z,75.57
2018-09-04T01:55:06.150Z,79.27
2018-09-04T02:00:03.258Z,73.97
2018-09-04T02:05:00.128Z,70.30
2018-09-04T02:09:57.140Z,76.17
2018-09-04T02:14:54.682Z,72.70
2018-09-04T02:19:51.404Z,82.90
2018-09-04T02:24:48.433Z,82.03
2018-09-04T02:29:45.268Z,80.60
2018-09-04T02:34:43.475Z,80.47
2018-09-04T02:39:40.305Z,90.67
2018-09-04T02:44:37.416Z,77.67
2018-09-04T02:49:34.205Z,86.20
2018-09-04T02:54:31.300Z,74.00
2018-09-04T02:59:28.322Z,85.43
2018-09-04T03:04:25.098Z,78.90
2018-09-04T03:09:21.979Z,67.30
2018-09-04T03:14:18.873Z,78.37
2018-09-04T03:19:15.637Z,54.60
2018-09-04T03:24:12.674Z,44.27
2018-09-04T03:29:09.670Z,41.77
2018-09-04T03:34:06.433Z,30.57
2018-09-04T03:39:04.287Z,21.27
2018-09-04T03:44:01.052Z,19.27
2018-09-04T03:48:57.961Z,21.77
2018-09-04T03:53:54.993Z,29.37
2018-09-04T03:58:52.593Z,28.73
2018-09-04T04:03:49.302Z,32.00
2018-09-04T04:08:46.459Z,45.33
2018-09-04T04:13:49.793Z,53.67
2018-09-04T04:18:46.584Z,61.53
2018-09-04T04:23:43.647Z,70.57
2018-09-04T04:28:40.723Z,81.27
2018-09-04T04:33:37.598Z,88.80
2018-09-04T04:38:34.464Z,101.63
2018-09-04T04:43:31.232Z,90.03
2018-09-04T04:48:28.199Z,112.17
2018-09-04T04:53:25.249Z,112.83
2018-09-04T04:58:22.311Z,128.50
2018-09-04T05:03:19.127Z,109.43
2018-09-04T05:08:16.394Z,111.53
2018-09-04T05:13:13.247Z,104.13
2018-09-04T05:18:10.417Z,112.80
2018-09-04T05:23:07.114Z,109.77
2018-09-04T05:28:04.361Z,109.87
2018-09-04T05:33:06.853Z,101.60
2018-09-04T05:38:03.976Z,100.03
2018-09-04T05:43:03.669Z,97.40
2018-09-04T05:48:03.773Z,99.27
2018-09-04T05:53:01.320Z,104.60
2018-09-04T05:57:58.456Z,93.87
2018-09-04T06:02:55.260Z,99.47
2018-09-04T06:07:52.134Z,93.13
2018-09-04T06:12:49.147Z,108.00
2018-09-04T06:17:46.424Z,100.80
2018-09-04T06:22:43.208Z,87.80
2018-09-04T06:27:40.167Z,82.93
2018-09-04T06:32:37.308Z,87.00
2018-09-04T06:37:34.183Z,85.07
2018-09-04T06:42:31.294Z,87.30
2018-09-04T06:47:28.506Z,83.07
2018-09-04T06:52:25.252Z,87.67
2018-09-04T06:57:22.454Z,87.33
2018-09-04T07:02:19.144Z,88.57
2018-09-04T07:07:16.113Z,107.17
2018-09-04T07:12:12.895Z,90.63
2018-09-04T07:17:09.914Z,88.83
2018-09-04T07:22:06.645Z,77.10
2018-09-04T07:27:03.697Z,82.93
2018-09-04T07:32:00.687Z,80.97
2018-09-04T07:36:57.834Z,82.83
2018-09-04T07:41:54.799Z,91.53
2018-09-04T07:46:52.153Z,97.33
2018-09-04T07:51:48.949Z,88.37
2018-09-04T07:56:47.241Z,85.53
2018-09-04T08:01:44.232Z,85.90
2018-09-04T08:06:41.510Z,85.77
2018-09-04T08:11:38.348Z,79.97
2018-09-04T08:16:35.975Z,76.07
2018-09-04T08:21:36.438Z,76.37
2018-09-04T08:26:33.397Z,79.40
2018-09-04T08:31:30.314Z,80.03
2018-09-04T08:36:27.376Z,73.20
2018-09-04T08:41:24.302Z,71.87
2018-09-04T08:46:21.874Z,66.23
2018-09-04T08:51:18.817Z,61.90
2018-09-04T08:56:15.933Z,68.70
2018-09-04T09:01:12.850Z,69.33
2018-09-04T09:06:10.144Z,65.13
2018-09-04T09:11:07.153Z,65.10
2018-09-04T09:16:04.149Z,64.90
2018-09-04T09:21:00.980Z,64.80
2018-09-04T09:25:59.510Z,54.27
2018-09-04T09:30:56.241Z,53.90
2018-09-04T09:35:53.227Z,58.85
2018-09-04T09:40:50.038Z,57.60
2018-09-04T09:45:46.943Z,56.65
2018-09-04T09:50:43.721Z,51.90
2018-09-04T09:55:41.538Z,54.53
2018-09-04T10:00:58.238Z,50.20
2018-09-04T10:05:55.031Z,50.38
2018-09-04T10:10:52.349Z,51.55
2018-09-04T10:15:49.168Z,45.23
2018-09-04T10:20:46.270Z,46.15
2018-09-04T10:25:43.023Z,41.95
2018-09-04T10:30:40.384Z,44.35
2018-09-04T10:35:37.105Z,37.38
2018-09-04T10:40:39.754Z,35.85
2018-09-04T10:45:42.352Z,37.30
2018-09-04T10:50:39.169Z,39.85
2018-09-04T10:55:36.418Z,41.23
2018-09-04T11:00:33.759Z,38.40
2018-09-04T11:05:30.780Z,39.20
2018-09-04T11:10:27.621Z,35.98
2018-09-04T11:15:24.649Z,34.83
2018-09-04T11:20:21.447Z,33.70
2018-09-04T11:25:18.661Z,36.48
2018-09-04T11:30:15.417Z,34.98
2018-09-04T11:35:12.596Z,33.08
2018-09-04T11:40:09.664Z,30.97
2018-09-04T11:45:07.053Z,31.52
2018-09-04T11:50:04.169Z,33.45
2018-09-04T11:55:01.254Z,32.83
2018-09-04T11:59:58.180Z,31.80
2018-09-04T12:04:55.273Z,31.60
2018-09-04T12:09:53.277Z,35.92
2018-09-04T12:14:52.043Z,32.73
2018-09-04T12:20:58.870Z,32.93
2018-09-04T12:25:56.848Z,31.37
2018-09-04T12:30:54.642Z,32.05
2018-09-04T12:35:51.505Z,34.20
2018-09-04T12:40:49.288Z,32.83
2018-09-04T12:45:50.463Z,35.52
2018-09-04T12:50:47.242Z,34.98
2018-09-04T12:55:44.261Z,40.40
2018-09-04T13:00:45.157Z,35.50
2018-09-04T13:05:41.927Z,32.03
2018-09-04T13:10:39.686Z,34.33
2018-09-04T13:15:37.052Z,32.63
2018-09-04T13:20:34.282Z,34.38
2018-09-04T13:25:31.012Z,33.73
2018-09-04T13:30:28.337Z,34.33
2018-09-04T13:35:25.128Z,32.38
2018-09-04T13:40:22.680Z,34.53
2018-09-04T13:45:19.607Z,31.95
2018-09-04T13:50:16.577Z,36.08
2018-09-04T13:55:13.374Z,32.67
2018-09-04T14:00:11.908Z,30.40
2018-09-04T14:05:08.722Z,30.70
2018-09-04T14:10:06.124Z,31.35
2018-09-04T14:15:03.833Z,30.17
2018-09-04T14:20:00.782Z,30.50
2018-09-04T14:24:57.619Z,33.42
2018-09-04T14:30:15.402Z,31.17
2018-09-04T14:34:51.266Z,31.85
2018-09-04T14:39:55.589Z,32.75
2018-09-04T14:44:45.068Z,27.87
2018-09-04T14:49:42.324Z,28.42
2018-09-04T14:54:39.119Z,29.72
2018-09-04T14:59:36.077Z,30.37
2018-09-04T15:04:32.775Z,28.67
2018-09-04T15:09:29.757Z,32.13
2018-09-04T15:14:26.467Z,28.45
2018-09-04T15:19:24.108Z,32.95
2018-09-04T15:24:20.839Z,26.30
2018-09-04T15:29:18.967Z,28.42
2018-09-04T15:34:17.041Z,29.80
2018-09-04T15:39:14.013Z,30.17
2018-09-04T15:44:10.794Z,28.00
2018-09-04T15:49:13.322Z,28.45
2018-09-04T15:54:10.129Z,30.08
2018-09-04T15:59:07.753Z,30.60
2018-09-04T16:04:04.635Z,29.05
2018-09-04T16:09:02.736Z,28.10
2018-09-04T16:13:59.467Z,28.20
2018-09-04T16:18:56.469Z,31.48
2018-09-04T16:23:53.229Z,28.83
2018-09-04T16:28:51.354Z,31.23
2018-09-04T16:33:48.123Z,30.27
2018-09-04T16:38:45.094Z,33.38
2018-09-04T16:43:41.848Z,32.15
2018-09-04T16:48:38.818Z,30.65
2018-09-04T16:53:35.577Z,34.00
2018-09-04T16:58:32.923Z,33.23
2018-09-04T17:03:30.094Z,32.20
2018-09-04T17:08:27.093Z,32.75
2018-09-04T17:13:23.856Z,32.28
2018-09-04T17:18:21.098Z,30.97
2018-09-04T17:23:17.853Z,31.25
2018-09-04T17:28:14.795Z,32.45
2018-09-04T17:33:12.627Z,39.45
2018-09-04T17:38:09.714Z,33.60
2018-09-04T17:43:06.500Z,37.65
2018-09-04T17:48:02.887Z,36.38
2018-09-04T17:52:59.604Z,31.97
2018-09-04T17:57:57.100Z,39.67
2018-09-04T18:02:53.866Z,33.98
2018-09-04T18:07:50.920Z,33.67
2018-09-04T18:12:47.715Z,40.73
2018-09-04T18:17:44.745Z,33.77
2018-09-04T18:22:41.776Z,31.93
2018-09-04T18:27:38.676Z,33.90
2018-09-04T18:32:35.415Z,33.10
2018-09-04T18:37:32.363Z,34.07
2018-09-04T18:42:29.121Z,34.53
2018-09-04T18:47:26.741Z,37.47
2018-09-04T18:52:24.342Z,35.70
2018-09-04T18:57:21.205Z,36.33
2018-09-04T19:02:17.973Z,36.80
2018-09-04T19:07:15.185Z,39.00
2018-09-04T19:12:11.960Z,41.60
2018-09-04T19:17:09.083Z,40.60
2018-09-04T19:22:05.891Z,37.30
2018-09-04T19:27:02.736Z,40.50
2018-09-04T19:31:59.534Z,40.87
2018-09-04T19:36:56.844Z,41.43
2018-09-04T19:41:53.594Z,41.03
2018-09-04T19:46:50.724Z,41.17
2018-09-04T19:51:47.658Z,45.27
2018-09-04T19:56:45.837Z,44.37
2018-09-04T20:01:42.661Z,47.40
2018-09-04T20:06:40.152Z,46.63
2018-09-04T20:11:36.972Z,44.17
2018-09-04T20:16:34.040Z,45.67
2018-09-04T20:21:30.810Z,49.83
2018-09-04T20:26:27.834Z,50.17
2018-09-04T20:31:24.597Z,44.37
2018-09-04T20:36:21.503Z,48.17
2018-09-04T20:41:18.507Z,52.03
2018-09-04T20:46:15.832Z,50.43
2018-09-04T20:51:12.690Z,47.33
2018-09-04T20:56:10.014Z,49.37
2018-09-04T21:01:13.690Z,47.47
2018-09-04T21:06:16.325Z,49.13
2018-09-04T21:11:13.092Z,54.87
2018-09-04T21:16:10.233Z,56.47
2018-09-04T21:21:07.136Z,47.17
2018-09-04T21:26:04.157Z,47.43
2018-09-04T21:31:01.015Z,45.87
2018-09-04T21:35:58.390Z,47.27
2018-09-04T21:40:55.173Z,47.40
2018-09-04T21:45:52.107Z,52.07
2018-09-04T21:50:48.899Z,52.97
2018-09-04T21:55:45.882Z,55.00
2018-09-04T22:00:42.729Z,50.07
2018-09-04T22:05:41.004Z,52.97
2018-09-04T22:10:37.922Z,57.30
2018-09-04T22:15:35.455Z,48.53
2018-09-04T22:20:32.159Z,55.07
2018-09-04T22:25:29.843Z,52.13
2018-09-04T22:30:26.775Z,48.87
2018-09-04T22:35:23.696Z,55.33
2018-09-04T22:40:20.417Z,58.20
2018-09-04T22:45:17.874Z,56.77
2018-09-04T22:50:20.586Z,53.80
2018-09-04T22:55:17.639Z,53.17
2018-09-04T23:00:16.536Z,54.03
2018-09-04T23:05:13.592Z,57.43
2018-09-04T23:10:10.718Z,50.07
2018-09-04T23:15:07.574Z,55.03
2018-09-04T23:20:04.939Z,52.80
2018-09-04T23:25:01.770Z,56.57
2018-09-04T23:29:58.741Z,54.90
2018-09-04T23:34:55.594Z,56.33
2018-09-04T23:39:52.528Z,56.10
2018-09-04T23:44:49.377Z,52.53
2018-09-04T23:49:46.291Z,55.50
2018-09-04T23:54:43.881Z,50.77
2018-09-04T23:59:40.753Z,51.70
